createdAt,value
2022-09-29T00:00:53.782Z,4.70
2022-09-29T00:03:41.513Z,4.50
2022-09-29T00:06:20.483Z,4.90
2022-09-29T00:08:54.505Z,4.50
2022-09-29T00:11:28.233Z,4.90
2022-09-29T00:14:02.004Z,4.40
2022-09-29T00:16:35.890Z,4.30
2022-09-29T00:19:09.882Z,3.60
2022-09-29T00:21:43.966Z,4.40
2022-09-29T00:24:18.435Z,4.30
2022-09-29T00:26:52.855Z,3.80
2022-09-29T00:29:27.082Z,3.80
2022-09-29T00:32:00.892Z,3.90
2022-09-29T00:34:35.051Z,4.10
2022-09-29T00:37:09.422Z,3.60
2022-09-29T00:39:43.218Z,3.90
2022-09-29T00:42:20.809Z,4.00
2022-09-29T00:45:07.199Z,3.40
2022-09-29T00:47:44.937Z,4.10
2022-09-29T00:50:27.241Z,3.60
2022-09-29T00:53:12.035Z,4.00
2022-09-29T00:55:51.662Z,3.80
2022-09-29T00:58:34.633Z,3.60
2022-09-29T01:01:09.941Z,3.40
2022-09-29T01:03:48.887Z,4.00
2022-09-29T01:06:27.637Z,4.00
2022-09-29T01:09:05.639Z,3.80
2022-09-29T01:11:39.438Z,3.70
2022-09-29T01:14:15.111Z,3.50
2022-09-29T01:16:49.139Z,3.60
2022-09-29T01:19:37.393Z,3.80
2022-09-29T01:22:30.180Z,2.90
2022-09-29T01:25:33.599Z,3.80
2022-09-29T01:28:40.377Z,4.20
2022-09-29T01:31:26.784Z,3.60
2022-09-29T01:34:12.677Z,3.60
2022-09-29T01:37:02.179Z,3.10
2022-09-29T01:39:43.101Z,5.20
2022-09-29T01:42:23.507Z,5.90
2022-09-29T01:45:06.198Z,6.00
2022-09-29T01:47:45.609Z,6.00
2022-09-29T01:50:25.280Z,6.90
2022-09-29T01:53:05.768Z,5.60
2022-09-29T01:55:47.347Z,6.10
2022-09-29T01:58:29.038Z,6.70
2022-09-29T02:01:11.406Z,5.70
2022-09-29T02:03:49.734Z,5.60
2022-09-29T02:06:30.369Z,5.80
2022-09-29T02:09:10.156Z,5.70
2022-09-29T02:11:45.946Z,6.70
2022-09-29T02:14:23.615Z,5.50
2022-09-29T02:17:08.124Z,5.60
2022-09-29T02:19:45.076Z,6.70
2022-09-29T02:22:20.327Z,6.10
2022-09-29T02:24:56.883Z,6.20
2022-09-29T02:27:33.944Z,5.80
2022-09-29T02:30:09.652Z,5.10
2022-09-29T02:32:43.595Z,4.70
2022-09-29T02:35:19.010Z,5.10
2022-09-29T02:38:06.480Z,5.50
2022-09-29T02:41:00.912Z,6.10
2022-09-29T02:44:01.258Z,5.70
2022-09-29T02:46:57.688Z,5.20
2022-09-29T02:49:55.573Z,4.90
2022-09-29T02:52:44.861Z,5.50
2022-09-29T02:55:27.052Z,5.70
2022-09-29T02:58:09.034Z,5.60
2022-09-29T03:00:43.254Z,5.80
2022-09-29T03:03:17.368Z,6.30
2022-09-29T03:05:51.575Z,5.10
2022-09-29T03:08:25.551Z,5.10
2022-09-29T03:10:59.603Z,6.10
2022-09-29T03:13:33.297Z,6.70
2022-09-29T03:16:07.600Z,6.50
2022-09-29T03:18:41.725Z,6.20
2022-09-29T03:21:15.439Z,5.50
2022-09-29T03:23:49.170Z,5.80
2022-09-29T03:26:24.236Z,5.60
2022-09-29T03:28:58.763Z,5.00
2022-09-29T03:31:33.889Z,7.00
2022-09-29T03:34:07.773Z,6.20
2022-09-29T03:36:42.111Z,6.30
2022-09-29T03:39:16.039Z,6.10
2022-09-29T03:41:49.921Z,6.30
2022-09-29T03:44:24.116Z,6.20
2022-09-29T03:46:57.832Z,5.70
2022-09-29T03:49:31.629Z,5.30
2022-09-29T03:52:05.704Z,5.10
2022-09-29T03:54:39.649Z,5.40
2022-09-29T03:57:13.798Z,5.40
2022-09-29T03:59:47.564Z,5.90
2022-09-29T04:02:21.755Z,5.60
2022-09-29T04:04:55.541Z,6.20
2022-09-29T04:07:29.338Z,5.00
2022-09-29T04:10:03.337Z,5.50
2022-09-29T04:12:37.226Z,5.70
2022-09-29T04:15:12.958Z,4.90
2022-09-29T04:17:46.560Z,4.90
2022-09-29T04:20:20.534Z,4.60
2022-09-29T04:22:54.633Z,4.80
2022-09-29T04:25:28.677Z,4.40
2022-09-29T04:28:03.678Z,4.30
2022-09-29T04:30:37.458Z,4.30
2022-09-29T04:33:11.707Z,4.70
2022-09-29T04:35:46.713Z,4.00
2022-09-29T04:38:21.127Z,3.70
2022-09-29T04:40:55.519Z,3.80
2022-09-29T04:43:29.908Z,4.40
2022-09-29T04:46:10.772Z,4.50
2022-09-29T04:48:45.107Z,4.40
2022-09-29T04:51:19.033Z,4.30
2022-09-29T04:53:54.516Z,3.70
2022-09-29T04:56:31.576Z,3.60
2022-09-29T04:59:05.875Z,4.60
2022-09-29T05:01:41.212Z,4.30
2022-09-29T05:04:15.430Z,4.70
2022-09-29T05:06:49.693Z,4.40
2022-09-29T05:09:25.118Z,4.10
2022-09-29T05:12:00.167Z,4.00
2022-09-29T05:14:35.069Z,4.30
2022-09-29T05:17:08.982Z,5.50
2022-09-29T05:19:42.948Z,5.00
2022-09-29T05:22:16.974Z,5.70
2022-09-29T05:24:50.692Z,5.10
2022-09-29T05:27:24.734Z,4.80
2022-09-29T05:29:58.794Z,5.60
2022-09-29T05:32:33.382Z,5.30
2022-09-29T05:35:08.363Z,4.70
2022-09-29T05:37:42.349Z,4.40
2022-09-29T05:40:16.662Z,3.80
2022-09-29T05:42:50.818Z,4.10
2022-09-29T05:45:25.051Z,4.20
2022-09-29T05:47:59.225Z,4.30
2022-09-29T05:50:33.804Z,5.20
2022-09-29T05:53:09.023Z,5.10
2022-09-29T05:55:43.547Z,5.40
2022-09-29T05:58:17.597Z,5.10
2022-09-29T06:00:51.841Z,5.80
2022-09-29T06:03:26.192Z,5.80
2022-09-29T06:06:00.285Z,5.90
2022-09-29T06:08:34.255Z,6.30
2022-09-29T06:11:15.689Z,6.10
2022-09-29T06:13:52.565Z,6.60
2022-09-29T06:16:29.298Z,5.80
2022-09-29T06:19:05.210Z,6.50
2022-09-29T06:21:40.915Z,6.90
2022-09-29T06:24:15.589Z,6.60
2022-09-29T06:26:50.030Z,7.10
2022-09-29T06:29:23.935Z,7.30
2022-09-29T06:31:57.812Z,8.00
2022-09-29T06:34:32.012Z,7.90
2022-09-29T06:37:23.979Z,9.50
2022-09-29T06:39:58.001Z,7.80
2022-09-29T06:42:32.508Z,10.10
2022-09-29T06:45:10.065Z,9.70
2022-09-29T06:47:44.177Z,11.20
2022-09-29T06:50:18.784Z,11.10
2022-09-29T06:53:04.057Z,10.30
2022-09-29T06:55:39.259Z,10.20
2022-09-29T06:58:13.977Z,9.30
2022-09-29T07:00:52.291Z,7.70
2022-09-29T07:03:29.277Z,7.40
2022-09-29T07:06:20.315Z,7.10
2022-09-29T07:09:00.105Z,7.00
2022-09-29T07:11:35.869Z,6.70
2022-09-29T07:14:10.382Z,7.30
2022-09-29T07:16:45.201Z,7.00
2022-09-29T07:19:21.122Z,6.80
2022-09-29T07:21:55.411Z,6.40
2022-09-29T07:24:29.631Z,6.90
2022-09-29T07:27:04.791Z,6.50
2022-09-29T07:29:40.510Z,5.20
2022-09-29T07:32:26.677Z,5.60
2022-09-29T07:35:05.605Z,5.50
2022-09-29T07:37:42.409Z,5.80
2022-09-29T07:40:17.896Z,5.60
2022-09-29T07:42:55.416Z,4.80
2022-09-29T07:45:30.341Z,5.40
2022-09-29T07:48:06.898Z,5.00
2022-09-29T07:50:43.469Z,6.00
2022-09-29T07:53:17.928Z,5.70
2022-09-29T07:55:52.339Z,4.20
2022-09-29T07:58:28.085Z,3.80
2022-09-29T08:01:10.763Z,3.40
2022-09-29T08:03:51.324Z,4.30
2022-09-29T08:06:26.544Z,3.90
2022-09-29T08:09:05.548Z,3.70
2022-09-29T08:11:43.332Z,2.90
2022-09-29T08:14:17.991Z,2.90
2022-09-29T08:16:52.123Z,3.20
2022-09-29T08:19:29.112Z,2.50
2022-09-29T08:22:03.945Z,2.40
2022-09-29T08:24:40.547Z,2.10
2022-09-29T08:27:19.110Z,2.60
2022-09-29T08:29:53.432Z,2.40
2022-09-29T08:32:27.324Z,1.90
2022-09-29T08:35:01.787Z,2.30
2022-09-29T08:37:36.916Z,2.20
2022-09-29T08:40:13.446Z,1.60
2022-09-29T08:43:02.225Z,2.20
2022-09-29T08:45:53.219Z,2.70
2022-09-29T08:48:40.124Z,2.60
2022-09-29T08:51:40.692Z,2.70
2022-09-29T08:54:38.557Z,2.00
2022-09-29T08:57:19.193Z,2.50
2022-09-29T09:00:00.511Z,2.70
2022-09-29T09:03:11.364Z,2.60
2022-09-29T09:09:23.396Z,2.40
2022-09-29T09:12:23.775Z,2.10
2022-09-29T09:15:29.986Z,2.20
2022-09-29T09:18:30.683Z,2.30
2022-09-29T09:21:11.912Z,2.20
2022-09-29T09:24:00.526Z,2.10
2022-09-29T09:26:43.746Z,1.90
2022-09-29T09:29:32.650Z,2.50
2022-09-29T09:32:17.434Z,2.00
2022-09-29T09:35:16.520Z,1.90
2022-09-29T09:37:54.992Z,2.50
2022-09-29T09:40:40.175Z,2.10
2022-09-29T09:43:23.076Z,1.90
2022-09-29T09:46:05.779Z,2.30
2022-09-29T09:48:46.921Z,2.20
2022-09-29T09:54:33.190Z,2.20
2022-09-29T09:57:44.591Z,2.20
2022-09-29T10:00:27.405Z,2.50
2022-09-29T10:03:08.535Z,2.00
2022-09-29T10:05:47.060Z,2.40
2022-09-29T10:08:27.761Z,2.70
2022-09-29T10:11:04.145Z,2.70
2022-09-29T10:13:50.943Z,2.50
2022-09-29T10:16:33.689Z,2.20
2022-09-29T10:19:08.013Z,2.30
2022-09-29T10:21:47.110Z,2.20
2022-09-29T10:24:32.936Z,2.20
2022-09-29T10:27:12.380Z,2.60
2022-09-29T10:29:51.349Z,2.80
2022-09-29T10:32:37.581Z,2.80
2022-09-29T10:35:28.355Z,2.60
2022-09-29T10:38:11.237Z,2.60
2022-09-29T10:41:01.418Z,2.70
2022-09-29T10:43:42.472Z,2.60
2022-09-29T10:46:49.762Z,2.70
2022-09-29T10:49:29.459Z,2.00
2022-09-29T10:52:07.726Z,2.30
2022-09-29T10:54:57.807Z,2.30
2022-09-29T10:57:35.720Z,5.20
2022-09-29T11:00:28.284Z,6.30
2022-09-29T11:03:18.236Z,2.30
2022-09-29T11:06:01.279Z,2.40
2022-09-29T11:08:53.536Z,2.10
2022-09-29T11:11:31.202Z,1.90
2022-09-29T11:14:26.074Z,2.10
2022-09-29T11:17:04.401Z,2.20
2022-09-29T11:19:38.525Z,1.50
2022-09-29T11:23:08.312Z,1.80
2022-09-29T11:26:22.173Z,1.80
2022-09-29T11:29:26.990Z,1.70
2022-09-29T11:32:27.228Z,1.80
2022-09-29T11:35:20.310Z,1.80
2022-09-29T11:38:24.015Z,2.00
2022-09-29T11:41:20.361Z,2.20
2022-09-29T11:44:03.287Z,1.50
2022-09-29T11:47:06.328Z,2.20
2022-09-29T11:50:15.511Z,1.80
2022-09-29T11:53:15.390Z,1.50
2022-09-29T11:56:32.879Z,1.50
2022-09-29T11:59:44.170Z,1.70
2022-09-29T12:02:56.925Z,1.90
2022-09-29T12:05:45.458Z,2.10
2022-09-29T12:08:39.237Z,1.70
2022-09-29T12:14:41.303Z,1.60
2022-09-29T12:17:22.929Z,1.80
2022-09-29T12:20:08.242Z,1.70
2022-09-29T12:22:48.388Z,1.80
2022-09-29T12:25:31.592Z,1.60
2022-09-29T12:28:13.340Z,6.70
2022-09-29T12:30:56.311Z,15.70
2022-09-29T12:33:38.771Z,6.30
2022-09-29T12:36:50.891Z,1.50
2022-09-29T12:39:42.427Z,1.20
2022-09-29T12:43:00.334Z,2.40
2022-09-29T12:45:48.679Z,4.30
2022-09-29T12:48:51.763Z,1.70
2022-09-29T12:51:36.136Z,1.50
2022-09-29T12:54:21.304Z,2.10
2022-09-29T12:57:04.493Z,2.20
2022-09-29T12:59:50.639Z,1.70
2022-09-29T13:03:02.570Z,1.40
2022-09-29T13:06:08.770Z,1.20
2022-09-29T13:09:23.078Z,1.40
2022-09-29T13:12:15.497Z,1.40
2022-09-29T13:15:14.910Z,1.20
2022-09-29T13:18:09.080Z,1.20
2022-09-29T13:21:09.810Z,1.00
2022-09-29T13:24:22.404Z,1.10
2022-09-29T13:27:31.215Z,1.20
2022-09-29T13:30:24.518Z,1.30
2022-09-29T13:33:11.041Z,1.30
2022-09-29T13:35:53.666Z,1.20
2022-09-29T13:38:34.552Z,1.10
2022-09-29T13:41:34.538Z,1.10
2022-09-29T13:44:26.417Z,1.00
2022-09-29T13:47:37.226Z,1.30
2022-09-29T13:50:48.046Z,1.00
2022-09-29T13:53:40.407Z,0.90
2022-09-29T13:56:22.219Z,1.00
2022-09-29T13:59:05.533Z,3.00
2022-09-29T14:01:44.348Z,1.40
2022-09-29T14:04:56.028Z,4.10
2022-09-29T14:07:49.827Z,2.90
2022-09-29T14:10:39.397Z,0.90
2022-09-29T14:13:24.984Z,1.80
2022-09-29T14:16:29.309Z,1.10
2022-09-29T14:19:18.987Z,1.50
2022-09-29T14:21:58.268Z,1.80
2022-09-29T14:24:52.730Z,1.30
2022-09-29T14:27:33.575Z,1.80
2022-09-29T14:30:22.114Z,1.50
2022-09-29T14:33:02.421Z,1.30
2022-09-29T14:35:40.074Z,1.20
2022-09-29T14:38:21.864Z,1.10
2022-09-29T14:41:13.388Z,1.00
2022-09-29T14:43:53.756Z,1.10
2022-09-29T14:47:19.175Z,1.00
2022-09-29T14:50:41.690Z,1.00
2022-09-29T14:53:39.155Z,1.20
2022-09-29T14:56:35.618Z,1.10
2022-09-29T14:59:25.861Z,0.90
2022-09-29T15:02:23.722Z,1.00
2022-09-29T15:04:58.115Z,0.90
2022-09-29T15:07:42.057Z,0.80
2022-09-29T15:10:31.807Z,1.10
2022-09-29T15:13:30.011Z,1.00
2022-09-29T15:16:16.736Z,0.80
2022-09-29T15:19:15.367Z,0.90
2022-09-29T15:22:01.612Z,0.80
2022-09-29T15:25:10.338Z,0.80
2022-09-29T15:27:49.028Z,0.80
2022-09-29T15:30:25.647Z,0.90
2022-09-29T15:33:19.133Z,1.30
2022-09-29T15:35:57.943Z,1.70
2022-09-29T15:38:41.055Z,1.20
2022-09-29T15:41:27.494Z,1.20
2022-09-29T15:44:18.342Z,1.20
2022-09-29T15:47:00.126Z,0.90
2022-09-29T15:49:39.947Z,1.20
2022-09-29T15:52:23.772Z,1.00
2022-09-29T15:55:01.651Z,1.00
2022-09-29T15:57:55.902Z,1.10
2022-09-29T16:00:48.504Z,1.10
2022-09-29T16:03:31.786Z,1.20
2022-09-29T16:06:24.758Z,1.00
2022-09-29T16:09:04.144Z,0.90
2022-09-29T16:11:40.571Z,1.00
2022-09-29T16:14:25.015Z,1.10
2022-09-29T16:16:59.163Z,1.00
2022-09-29T16:19:36.490Z,1.50
2022-09-29T16:22:19.128Z,1.20
2022-09-29T16:25:22.318Z,1.70
2022-09-29T16:28:02.495Z,1.30
2022-09-29T16:30:40.014Z,1.10
2022-09-29T16:33:23.925Z,10.90
2022-09-29T16:36:09.391Z,2.50
2022-09-29T16:38:48.038Z,1.20
2022-09-29T16:41:34.433Z,1.50
2022-09-29T16:44:17.498Z,1.10
2022-09-29T16:46:56.209Z,1.10
2022-09-29T16:49:33.363Z,1.20
2022-09-29T16:52:23.184Z,1.00
2022-09-29T16:55:16.891Z,1.20
2022-09-29T16:58:00.720Z,1.10
2022-09-29T17:00:38.091Z,1.00
2022-09-29T17:03:12.487Z,1.10
2022-09-29T17:05:48.581Z,1.20
2022-09-29T17:08:25.244Z,1.00
2022-09-29T17:11:03.079Z,1.00
2022-09-29T17:13:38.792Z,1.80
2022-09-29T17:16:21.405Z,1.10
2022-09-29T17:19:01.786Z,1.10
2022-09-29T17:21:36.416Z,1.30
2022-09-29T17:24:11.395Z,1.20
2022-09-29T17:27:20.922Z,1.40
2022-09-29T17:29:54.977Z,1.30
2022-09-29T17:32:29.182Z,1.50
2022-09-29T17:35:03.596Z,1.30
2022-09-29T17:37:38.442Z,1.00
2022-09-29T17:40:24.558Z,1.00
2022-09-29T17:43:00.474Z,0.80
2022-09-29T17:45:42.083Z,1.00
2022-09-29T17:48:20.978Z,1.20
2022-09-29T17:50:59.239Z,1.20
2022-09-29T17:53:33.584Z,1.30
2022-09-29T17:56:13.056Z,1.40
2022-09-29T17:58:46.950Z,1.20
2022-09-29T18:01:23.646Z,1.70
2022-09-29T18:04:00.393Z,1.60
2022-09-29T18:06:39.167Z,1.90
2022-09-29T18:09:26.485Z,1.90
2022-09-29T18:12:00.361Z,2.00
2022-09-29T18:14:35.636Z,1.30
2022-09-29T18:17:11.029Z,2.00
2022-09-29T18:19:46.369Z,1.80
2022-09-29T18:22:20.353Z,1.70
2022-09-29T18:24:54.455Z,1.80
2022-09-29T18:27:29.048Z,2.00
2022-09-29T18:30:02.984Z,2.40
2022-09-29T18:32:36.982Z,2.20
2022-09-29T18:35:17.732Z,2.60
2022-09-29T18:37:52.389Z,2.30
2022-09-29T18:40:27.177Z,2.30
2022-09-29T18:43:02.359Z,2.90
2022-09-29T18:45:40.289Z,2.70
2022-09-29T18:48:16.802Z,3.00
2022-09-29T18:50:56.869Z,3.30
2022-09-29T18:53:33.670Z,2.90
2022-09-29T18:56:13.307Z,2.90
2022-09-29T18:58:47.519Z,2.70
2022-09-29T19:01:27.759Z,3.10
2022-09-29T19:04:03.029Z,3.30
2022-09-29T19:06:37.903Z,3.00
2022-09-29T19:09:12.113Z,3.10
2022-09-29T19:11:48.599Z,3.30
2022-09-29T19:14:24.441Z,6.60
2022-09-29T19:17:02.767Z,8.10
2022-09-29T19:19:36.967Z,10.60
2022-09-29T19:22:12.940Z,10.70
2022-09-29T19:24:48.036Z,10.90
2022-09-29T19:27:22.576Z,10.90
2022-09-29T19:30:03.596Z,9.80
2022-09-29T19:32:39.132Z,11.30
2022-09-29T19:35:17.596Z,10.80
2022-09-29T19:37:52.897Z,11.70
2022-09-29T19:40:32.055Z,11.80
2022-09-29T19:43:07.681Z,10.70
2022-09-29T19:45:45.365Z,10.80
2022-09-29T19:48:23.315Z,12.30
2022-09-29T19:51:20.924Z,11.50
2022-09-29T19:54:10.065Z,11.50
2022-09-29T19:56:50.578Z,10.40
2022-09-29T19:59:29.164Z,11.40
2022-09-29T20:02:06.282Z,11.00
2022-09-29T20:04:43.804Z,10.90
2022-09-29T20:07:19.384Z,11.40
2022-09-29T20:09:53.564Z,11.80
2022-09-29T20:12:28.770Z,10.10
2022-09-29T20:15:04.836Z,12.10
2022-09-29T20:17:40.017Z,11.30
2022-09-29T20:20:14.807Z,12.10
2022-09-29T20:22:48.775Z,10.50
2022-09-29T20:25:23.381Z,11.40
2022-09-29T20:27:59.188Z,11.50
2022-09-29T20:30:33.543Z,10.80
2022-09-29T20:33:09.230Z,12.10
2022-09-29T20:35:45.550Z,10.50
2022-09-29T20:38:20.150Z,11.30
2022-09-29T20:40:55.184Z,10.30
2022-09-29T20:43:29.304Z,10.80
2022-09-29T20:46:06.281Z,10.40
2022-09-29T20:48:42.315Z,10.50
2022-09-29T20:51:17.699Z,9.80
2022-09-29T20:53:57.380Z,10.50
2022-09-29T20:56:40.358Z,10.70
2022-09-29T20:59:18.885Z,9.40
2022-09-29T21:01:53.987Z,10.00
2022-09-29T21:04:29.111Z,9.50
2022-09-29T21:07:04.238Z,9.90
2022-09-29T21:09:38.106Z,11.10
2022-09-29T21:12:12.074Z,11.20
2022-09-29T21:14:46.004Z,12.30
2022-09-29T21:17:19.842Z,13.40
2022-09-29T21:19:53.662Z,10.80
2022-09-29T21:22:28.165Z,12.40
2022-09-29T21:25:02.507Z,12.50
2022-09-29T21:27:39.719Z,12.10
2022-09-29T21:30:15.874Z,12.80
2022-09-29T21:32:50.728Z,11.80
2022-09-29T21:35:24.890Z,12.50
2022-09-29T21:37:58.815Z,11.70
2022-09-29T21:40:33.230Z,11.30
2022-09-29T21:43:07.416Z,11.60
2022-09-29T21:45:41.556Z,11.40
2022-09-29T21:48:15.716Z,11.80
2022-09-29T21:50:49.670Z,11.50
2022-09-29T21:53:23.342Z,11.60
2022-09-29T21:56:00.246Z,11.00
2022-09-29T21:58:35.923Z,11.90
2022-09-29T22:01:11.702Z,12.30
2022-09-29T22:03:48.389Z,12.30
2022-09-29T22:06:25.207Z,11.40
2022-09-29T22:09:00.274Z,12.10
2022-09-29T22:11:38.253Z,11.80
2022-09-29T22:14:16.135Z,12.10
2022-09-29T22:16:50.271Z,10.90
2022-09-29T22:19:32.793Z,12.40
2022-09-29T22:22:06.720Z,11.50
2022-09-29T22:24:40.772Z,12.10
2022-09-29T22:27:15.291Z,11.50
2022-09-29T22:29:49.223Z,12.20
2022-09-29T22:32:23.537Z,10.50
2022-09-29T22:34:57.373Z,11.70
2022-09-29T22:37:31.439Z,11.00
2022-09-29T22:40:06.217Z,11.60
2022-09-29T22:42:40.337Z,11.30
2022-09-29T22:45:15.591Z,11.00
2022-09-29T22:47:49.332Z,10.70
2022-09-29T22:50:24.206Z,10.10
2022-09-29T22:52:58.706Z,11.00
2022-09-29T22:55:36.260Z,11.50
2022-09-29T22:58:10.582Z,11.50
2022-09-29T23:00:45.372Z,11.60
2022-09-29T23:03:19.248Z,10.60
2022-09-29T23:05:59.645Z,10.70
2022-09-29T23:08:34.214Z,10.30
2022-09-29T23:11:09.788Z,10.70
2022-09-29T23:13:44.045Z,11.10
2022-09-29T23:16:18.852Z,10.20
2022-09-29T23:18:58.914Z,11.30
2022-09-29T23:21:34.528Z,11.50
2022-09-29T23:24:08.848Z,12.20
2022-09-29T23:26:42.988Z,10.20
2022-09-29T23:29:16.876Z,10.20
2022-09-29T23:31:50.807Z,10.60
2022-09-29T23:34:25.224Z,9.00
2022-09-29T23:37:02.839Z,9.10
2022-09-29T23:39:39.322Z,9.50
2022-09-29T23:42:14.657Z,10.00
2022-09-29T23:44:48.622Z,10.30
2022-09-29T23:47:23.017Z,10.80
2022-09-29T23:49:57.272Z,11.20
2022-09-29T23:52:31.151Z,10.60
2022-09-29T23:55:05.386Z,10.80
2022-09-29T23:57:39.223Z,10.20
